sensor_id;sensor_type;location;lat;lon;timestamp;temperature;humidity
74657;DHT22;63185;45.642;13.764;2023-02-15T00:01:44;9.00;70.00
74657;DHT22;63185;45.642;13.764;2023-02-15T00:04:14;9.10;70.50
74657;DHT22;63185;45.642;13.764;2023-02-15T00:06:40;9.10;70.30
74657;DHT22;63185;45.642;13.764;2023-02-15T00:09:06;9.10;70.50
74657;DHT22;63185;45.642;13.764;2023-02-15T00:11:31;9.10;71.40
74657;DHT22;63185;45.642;13.764;2023-02-15T00:14:18;9.10;71.10
74657;DHT22;63185;45.642;13.764;2023-02-15T00:16:45;9.10;70.70
74657;DHT22;63185;45.642;13.764;2023-02-15T00:19:12;9.10;70.40
74657;DHT22;63185;45.642;13.764;2023-02-15T00:21:39;9.10;70.70
74657;DHT22;63185;45.642;13.764;2023-02-15T00:24:07;9.10;70.80
74657;DHT22;63185;45.642;13.764;2023-02-15T00:26:34;9.10;70.60
74657;DHT22;63185;45.642;13.764;2023-02-15T00:28:59;9.00;70.90
74657;DHT22;63185;45.642;13.764;2023-02-15T00:31:26;9.00;71.30
74657;DHT22;63185;45.642;13.764;2023-02-15T00:33:52;9.00;71.20
74657;DHT22;63185;45.642;13.764;2023-02-15T00:36:18;8.90;71.20
74657;DHT22;63185;45.642;13.764;2023-02-15T00:38:44;8.90;71.50
74657;DHT22;63185;45.642;13.764;2023-02-15T00:41:10;8.90;72.20
74657;DHT22;63185;45.642;13.764;2023-02-15T00:43:36;8.90;72.60
74657;DHT22;63185;45.642;13.764;2023-02-15T00:46:03;8.90;72.80
74657;DHT22;63185;45.642;13.764;2023-02-15T00:48:29;8.80;72.90
74657;DHT22;63185;45.642;13.764;2023-02-15T00:50:58;8.80;73.20
74657;DHT22;63185;45.642;13.764;2023-02-15T00:53:26;8.80;73.60
74657;DHT22;63185;45.642;13.764;2023-02-15T00:55:53;8.80;74.20
74657;DHT22;63185;45.642;13.764;2023-02-15T00:58:18;8.80;73.80
74657;DHT22;63185;45.642;13.764;2023-02-15T01:00:45;8.80;73.90
74657;DHT22;63185;45.642;13.764;2023-02-15T01:03:14;8.80;74.50
74657;DHT22;63185;45.642;13.764;2023-02-15T01:05:40;8.80;74.40
74657;DHT22;63185;45.642;13.764;2023-02-15T01:08:06;8.80;74.70
74657;DHT22;63185;45.642;13.764;2023-02-15T01:10:33;8.80;74.80
74657;DHT22;63185;45.642;13.764;2023-02-15T01:12:59;8.80;74.50
74657;DHT22;63185;45.642;13.764;2023-02-15T01:15:25;8.80;75.00
74657;DHT22;63185;45.642;13.764;2023-02-15T01:17:50;8.80;75.40
74657;DHT22;63185;45.642;13.764;2023-02-15T01:20:23;8.80;75.40
74657;DHT22;63185;45.642;13.764;2023-02-15T01:22:49;8.80;75.20
74657;DHT22;63185;45.642;13.764;2023-02-15T01:25:19;8.80;75.20
74657;DHT22;63185;45.642;13.764;2023-02-15T01:27:45;8.80;75.10
74657;DHT22;63185;45.642;13.764;2023-02-15T01:30:12;8.80;75.10
74657;DHT22;63185;45.642;13.764;2023-02-15T01:32:38;8.80;74.90
74657;DHT22;63185;45.642;13.764;2023-02-15T01:35:04;8.80;74.80
74657;DHT22;63185;45.642;13.764;2023-02-15T01:37:31;8.90;74.50
74657;DHT22;63185;45.642;13.764;2023-02-15T01:39:57;8.90;74.30
74657;DHT22;63185;45.642;13.764;2023-02-15T01:42:26;8.90;74.10
74657;DHT22;63185;45.642;13.764;2023-02-15T01:44:57;8.90;73.50
74657;DHT22;63185;45.642;13.764;2023-02-15T01:49:54;8.90;73.80
74657;DHT22;63185;45.642;13.764;2023-02-15T01:52:23;8.90;73.30
74657;DHT22;63185;45.642;13.764;2023-02-15T01:54:50;8.90;74.40
74657;DHT22;63185;45.642;13.764;2023-02-15T01:57:19;8.90;74.60
74657;DHT22;63185;45.642;13.764;2023-02-15T01:59:50;8.90;74.60
74657;DHT22;63185;45.642;13.764;2023-02-15T02:02:18;9.00;74.40
74657;DHT22;63185;45.642;13.764;2023-02-15T02:04:51;8.90;73.80
74657;DHT22;63185;45.642;13.764;2023-02-15T02:07:20;8.90;74.00
74657;DHT22;63185;45.642;13.764;2023-02-15T02:09:47;9.00;74.40
74657;DHT22;63185;45.642;13.764;2023-02-15T02:12:14;9.00;74.20
74657;DHT22;63185;45.642;13.764;2023-02-15T02:14:41;8.90;73.60
74657;DHT22;63185;45.642;13.764;2023-02-15T02:34:22;9.10;62.30
74657;DHT22;63185;45.642;13.764;2023-02-15T02:39:51;9.20;68.80
74657;DHT22;63185;45.642;13.764;2023-02-15T02:42:28;9.20;69.70
74657;DHT22;63185;45.642;13.764;2023-02-15T02:45:28;9.20;70.10
74657;DHT22;63185;45.642;13.764;2023-02-15T02:48:04;9.30;71.80
74657;DHT22;63185;45.642;13.764;2023-02-15T02:50:31;9.40;72.90
74657;DHT22;63185;45.642;13.764;2023-02-15T02:52:58;9.40;73.20
74657;DHT22;63185;45.642;13.764;2023-02-15T02:55:36;9.30;73.80
74657;DHT22;63185;45.642;13.764;2023-02-15T02:58:17;9.20;73.90
74657;DHT22;63185;45.642;13.764;2023-02-15T03:00:57;9.10;73.50
74657;DHT22;63185;45.642;13.764;2023-02-15T03:03:47;8.90;73.90
74657;DHT22;63185;45.642;13.764;2023-02-15T03:06:28;8.90;73.80
74657;DHT22;63185;45.642;13.764;2023-02-15T03:09:00;8.80;73.50
74657;DHT22;63185;45.642;13.764;2023-02-15T03:11:27;8.60;73.90
74657;DHT22;63185;45.642;13.764;2023-02-15T03:13:53;8.60;74.40
74657;DHT22;63185;45.642;13.764;2023-02-15T03:16:19;8.60;74.70
74657;DHT22;63185;45.642;13.764;2023-02-15T03:24:25;8.40;75.90
74657;DHT22;63185;45.642;13.764;2023-02-15T03:26:53;8.40;75.90
74657;DHT22;63185;45.642;13.764;2023-02-15T03:29:23;8.30;76.10
74657;DHT22;63185;45.642;13.764;2023-02-15T03:32:02;8.30;76.40
74657;DHT22;63185;45.642;13.764;2023-02-15T03:34:29;8.30;76.60
74657;DHT22;63185;45.642;13.764;2023-02-15T03:43:02;8.40;75.70
74657;DHT22;63185;45.642;13.764;2023-02-15T03:45:33;8.30;75.70
74657;DHT22;63185;45.642;13.764;2023-02-15T03:48:00;8.40;75.60
74657;DHT22;63185;45.642;13.764;2023-02-15T03:50:30;8.40;75.70
74657;DHT22;63185;45.642;13.764;2023-02-15T03:53:17;8.40;75.50
74657;DHT22;63185;45.642;13.764;2023-02-15T03:55:49;8.40;76.40
74657;DHT22;63185;45.642;13.764;2023-02-15T03:58:18;8.30;76.50
74657;DHT22;63185;45.642;13.764;2023-02-15T04:01:17;8.40;76.30
74657;DHT22;63185;45.642;13.764;2023-02-15T04:04:13;8.40;76.80
74657;DHT22;63185;45.642;13.764;2023-02-15T04:06:42;8.40;77.20
74657;DHT22;63185;45.642;13.764;2023-02-15T04:09:08;8.40;77.20
74657;DHT22;63185;45.642;13.764;2023-02-15T04:11:53;8.40;77.30
74657;DHT22;63185;45.642;13.764;2023-02-15T04:14:18;8.40;77.80
74657;DHT22;63185;45.642;13.764;2023-02-15T04:17:08;8.40;78.30
74657;DHT22;63185;45.642;13.764;2023-02-15T04:19:35;8.40;78.50
74657;DHT22;63185;45.642;13.764;2023-02-15T04:22:19;8.50;78.80
74657;DHT22;63185;45.642;13.764;2023-02-15T04:25:04;8.60;78.50
74657;DHT22;63185;45.642;13.764;2023-02-15T04:27:50;8.50;78.70
74657;DHT22;63185;45.642;13.764;2023-02-15T04:30:18;8.40;78.60
74657;DHT22;63185;45.642;13.764;2023-02-15T04:32:44;8.40;78.90
74657;DHT22;63185;45.642;13.764;2023-02-15T04:35:10;8.40;79.30
74657;DHT22;63185;45.642;13.764;2023-02-15T04:37:37;8.40;79.30
74657;DHT22;63185;45.642;13.764;2023-02-15T04:40:04;8.40;79.30
74657;DHT22;63185;45.642;13.764;2023-02-15T04:42:30;8.40;79.20
74657;DHT22;63185;45.642;13.764;2023-02-15T04:44:56;8.40;79.10
74657;DHT22;63185;45.642;13.764;2023-02-15T04:47:22;8.40;79.10
74657;DHT22;63185;45.642;13.764;2023-02-15T04:49:48;8.40;79.20
74657;DHT22;63185;45.642;13.764;2023-02-15T04:52:13;8.30;79.30
74657;DHT22;63185;45.642;13.764;2023-02-15T04:54:39;8.30;79.50
74657;DHT22;63185;45.642;13.764;2023-02-15T04:57:05;8.40;79.40
74657;DHT22;63185;45.642;13.764;2023-02-15T04:59:31;8.30;79.60
74657;DHT22;63185;45.642;13.764;2023-02-15T05:01:57;8.40;79.50
74657;DHT22;63185;45.642;13.764;2023-02-15T05:04:23;8.40;79.40
74657;DHT22;63185;45.642;13.764;2023-02-15T05:06:48;8.30;79.60
74657;DHT22;63185;45.642;13.764;2023-02-15T05:09:15;8.40;79.90
74657;DHT22;63185;45.642;13.764;2023-02-15T05:11:40;8.40;79.90
74657;DHT22;63185;45.642;13.764;2023-02-15T05:14:06;8.30;79.90
74657;DHT22;63185;45.642;13.764;2023-02-15T05:16:32;8.40;79.70
74657;DHT22;63185;45.642;13.764;2023-02-15T05:18:58;8.40;79.70
74657;DHT22;63185;45.642;13.764;2023-02-15T05:21:23;8.40;80.20
74657;DHT22;63185;45.642;13.764;2023-02-15T05:23:49;8.40;79.80
74657;DHT22;63185;45.642;13.764;2023-02-15T05:26:21;8.40;79.70
74657;DHT22;63185;45.642;13.764;2023-02-15T05:29:07;8.40;79.40
74657;DHT22;63185;45.642;13.764;2023-02-15T05:31:33;8.40;79.10
74657;DHT22;63185;45.642;13.764;2023-02-15T05:34:00;8.40;79.10
74657;DHT22;63185;45.642;13.764;2023-02-15T05:36:25;8.40;79.00
74657;DHT22;63185;45.642;13.764;2023-02-15T05:38:51;8.30;78.80
74657;DHT22;63185;45.642;13.764;2023-02-15T05:41:17;8.30;78.40
74657;DHT22;63185;45.642;13.764;2023-02-15T05:43:43;8.30;78.40
74657;DHT22;63185;45.642;13.764;2023-02-15T05:46:08;8.30;78.20
74657;DHT22;63185;45.642;13.764;2023-02-15T05:48:34;8.30;78.10
74657;DHT22;63185;45.642;13.764;2023-02-15T05:51:06;8.40;78.60
74657;DHT22;63185;45.642;13.764;2023-02-15T05:53:34;8.40;78.30
74657;DHT22;63185;45.642;13.764;2023-02-15T05:56:00;8.40;78.50
74657;DHT22;63185;45.642;13.764;2023-02-15T05:58:29;8.40;78.80
74657;DHT22;63185;45.642;13.764;2023-02-15T06:00:55;8.40;78.70
74657;DHT22;63185;45.642;13.764;2023-02-15T06:03:22;8.40;78.80
74657;DHT22;63185;45.642;13.764;2023-02-15T06:05:48;8.50;79.00
74657;DHT22;63185;45.642;13.764;2023-02-15T06:08:14;8.50;78.80
74657;DHT22;63185;45.642;13.764;2023-02-15T06:10:41;8.40;78.90
74657;DHT22;63185;45.642;13.764;2023-02-15T06:13:07;8.40;78.90
74657;DHT22;63185;45.642;13.764;2023-02-15T06:15:33;8.50;78.90
74657;DHT22;63185;45.642;13.764;2023-02-15T06:17:59;8.50;78.80
74657;DHT22;63185;45.642;13.764;2023-02-15T06:20:24;8.40;78.90
74657;DHT22;63185;45.642;13.764;2023-02-15T06:22:50;8.40;78.50
74657;DHT22;63185;45.642;13.764;2023-02-15T06:25:16;8.30;78.40
74657;DHT22;63185;45.642;13.764;2023-02-15T06:27:42;8.40;78.20
74657;DHT22;63185;45.642;13.764;2023-02-15T06:30:09;8.30;78.20
74657;DHT22;63185;45.642;13.764;2023-02-15T06:32:36;8.40;78.10
74657;DHT22;63185;45.642;13.764;2023-02-15T06:35:02;8.50;78.30
74657;DHT22;63185;45.642;13.764;2023-02-15T06:37:28;8.50;78.50
74657;DHT22;63185;45.642;13.764;2023-02-15T06:39:53;8.50;78.40
74657;DHT22;63185;45.642;13.764;2023-02-15T06:42:19;8.60;78.70
74657;DHT22;63185;45.642;13.764;2023-02-15T06:44:45;8.60;78.60
74657;DHT22;63185;45.642;13.764;2023-02-15T06:47:11;8.60;78.50
74657;DHT22;63185;45.642;13.764;2023-02-15T06:49:39;8.60;78.40
74657;DHT22;63185;45.642;13.764;2023-02-15T06:52:05;8.60;78.80
74657;DHT22;63185;45.642;13.764;2023-02-15T06:54:31;8.70;78.70
74657;DHT22;63185;45.642;13.764;2023-02-15T06:56:57;8.70;78.80
74657;DHT22;63185;45.642;13.764;2023-02-15T06:59:22;8.70;79.10
74657;DHT22;63185;45.642;13.764;2023-02-15T07:01:48;8.70;79.20
74657;DHT22;63185;45.642;13.764;2023-02-15T07:04:14;8.70;79.30
74657;DHT22;63185;45.642;13.764;2023-02-15T07:06:40;8.80;79.40
74657;DHT22;63185;45.642;13.764;2023-02-15T07:09:06;8.90;79.70
74657;DHT22;63185;45.642;13.764;2023-02-15T07:11:32;8.90;79.60
74657;DHT22;63185;45.642;13.764;2023-02-15T07:14:16;9.00;79.70
74657;DHT22;63185;45.642;13.764;2023-02-15T07:16:42;9.00;79.40
74657;DHT22;63185;45.642;13.764;2023-02-15T07:19:08;9.10;78.50
74657;DHT22;63185;45.642;13.764;2023-02-15T07:21:34;9.10;77.80
74657;DHT22;63185;45.642;13.764;2023-02-15T07:24:00;9.20;77.40
74657;DHT22;63185;45.642;13.764;2023-02-15T07:26:26;9.30;76.50
74657;DHT22;63185;45.642;13.764;2023-02-15T07:28:52;9.30;75.70
74657;DHT22;63185;45.642;13.764;2023-02-15T07:31:18;9.40;75.20
74657;DHT22;63185;45.642;13.764;2023-02-15T07:33:43;9.50;73.80
74657;DHT22;63185;45.642;13.764;2023-02-15T07:36:10;9.60;73.20
74657;DHT22;63185;45.642;13.764;2023-02-15T07:38:39;9.60;73.20
74657;DHT22;63185;45.642;13.764;2023-02-15T07:41:07;9.70;73.20
74657;DHT22;63185;45.642;13.764;2023-02-15T07:43:35;9.70;73.00
74657;DHT22;63185;45.642;13.764;2023-02-15T07:46:02;9.80;72.80
74657;DHT22;63185;45.642;13.764;2023-02-15T07:48:28;9.80;72.80
74657;DHT22;63185;45.642;13.764;2023-02-15T07:50:56;9.70;73.10
74657;DHT22;63185;45.642;13.764;2023-02-15T07:53:23;9.80;72.60
74657;DHT22;63185;45.642;13.764;2023-02-15T07:55:49;9.80;72.60
74657;DHT22;63185;45.642;13.764;2023-02-15T07:58:15;9.70;72.70
74657;DHT22;63185;45.642;13.764;2023-02-15T08:00:40;9.80;72.70
74657;DHT22;63185;45.642;13.764;2023-02-15T08:03:27;9.80;72.40
74657;DHT22;63185;45.642;13.764;2023-02-15T08:05:59;9.80;72.20
74657;DHT22;63185;45.642;13.764;2023-02-15T08:08:28;9.80;72.10
74657;DHT22;63185;45.642;13.764;2023-02-15T08:13:53;9.90;71.20
74657;DHT22;63185;45.642;13.764;2023-02-15T08:16:31;10.00;71.20
74657;DHT22;63185;45.642;13.764;2023-02-15T08:18:58;10.00;70.90
74657;DHT22;63185;45.642;13.764;2023-02-15T08:21:27;10.00;70.20
74657;DHT22;63185;45.642;13.764;2023-02-15T08:23:53;10.10;70.10
74657;DHT22;63185;45.642;13.764;2023-02-15T08:26:19;10.20;69.90
74657;DHT22;63185;45.642;13.764;2023-02-15T08:28:45;10.30;69.20
74657;DHT22;63185;45.642;13.764;2023-02-15T08:31:13;10.40;68.50
74657;DHT22;63185;45.642;13.764;2023-02-15T08:33:41;10.40;67.70
74657;DHT22;63185;45.642;13.764;2023-02-15T08:36:12;10.40;67.00
74657;DHT22;63185;45.642;13.764;2023-02-15T08:38:39;10.50;66.40
74657;DHT22;63185;45.642;13.764;2023-02-15T08:43:43;10.80;63.00
74657;DHT22;63185;45.642;13.764;2023-02-15T08:46:10;11.00;63.00
74657;DHT22;63185;45.642;13.764;2023-02-15T08:48:36;11.10;63.00
74657;DHT22;63185;45.642;13.764;2023-02-15T08:51:06;11.20;63.80
74657;DHT22;63185;45.642;13.764;2023-02-15T08:53:32;11.10;66.00
74657;DHT22;63185;45.642;13.764;2023-02-15T08:55:59;11.20;65.90
74657;DHT22;63185;45.642;13.764;2023-02-15T08:58:25;11.30;65.40
74657;DHT22;63185;45.642;13.764;2023-02-15T09:00:51;11.30;65.70
74657;DHT22;63185;45.642;13.764;2023-02-15T09:03:17;11.30;65.90
74657;DHT22;63185;45.642;13.764;2023-02-15T09:05:43;11.40;66.50
74657;DHT22;63185;45.642;13.764;2023-02-15T09:08:09;11.30;67.40
74657;DHT22;63185;45.642;13.764;2023-02-15T09:10:34;11.30;68.10
74657;DHT22;63185;45.642;13.764;2023-02-15T09:13:00;11.20;68.00
74657;DHT22;63185;45.642;13.764;2023-02-15T09:15:26;11.20;69.10
74657;DHT22;63185;45.642;13.764;2023-02-15T09:17:52;11.10;69.90
74657;DHT22;63185;45.642;13.764;2023-02-15T09:20:18;11.30;70.00
74657;DHT22;63185;45.642;13.764;2023-02-15T09:22:43;11.20;70.50
74657;DHT22;63185;45.642;13.764;2023-02-15T09:25:09;11.30;70.70
74657;DHT22;63185;45.642;13.764;2023-02-15T09:27:35;11.30;69.90
74657;DHT22;63185;45.642;13.764;2023-02-15T09:30:02;11.10;70.40
74657;DHT22;63185;45.642;13.764;2023-02-15T09:32:28;11.30;70.70
74657;DHT22;63185;45.642;13.764;2023-02-15T09:34:54;11.30;71.60
74657;DHT22;63185;45.642;13.764;2023-02-15T09:37:19;11.30;72.00
74657;DHT22;63185;45.642;13.764;2023-02-15T09:39:45;11.40;71.90
74657;DHT22;63185;45.642;13.764;2023-02-15T09:45:20;11.40;70.90
74657;DHT22;63185;45.642;13.764;2023-02-15T09:54:09;11.00;71.60
74657;DHT22;63185;45.642;13.764;2023-02-15T09:56:48;11.10;71.10
74657;DHT22;63185;45.642;13.764;2023-02-15T10:12:39;11.30;69.60
74657;DHT22;63185;45.642;13.764;2023-02-15T10:18:34;11.50;69.10
74657;DHT22;63185;45.642;13.764;2023-02-15T10:26:46;11.70;67.90
74657;DHT22;63185;45.642;13.764;2023-02-15T10:34:37;11.70;67.70
74657;DHT22;63185;45.642;13.764;2023-02-15T10:40:22;11.90;66.30
74657;DHT22;63185;45.642;13.764;2023-02-15T11:05:02;11.30;65.90
74657;DHT22;63185;45.642;13.764;2023-02-15T11:07:41;11.30;66.20
74657;DHT22;63185;45.642;13.764;2023-02-15T11:12:57;11.30;66.70
74657;DHT22;63185;45.642;13.764;2023-02-15T11:15:35;11.20;68.00
74657;DHT22;63185;45.642;13.764;2023-02-15T11:18:14;11.20;68.30
74657;DHT22;63185;45.642;13.764;2023-02-15T11:20:53;11.40;68.00
74657;DHT22;63185;45.642;13.764;2023-02-15T11:23:21;11.50;67.20
74657;DHT22;63185;45.642;13.764;2023-02-15T11:28:52;11.60;66.90
74657;DHT22;63185;45.642;13.764;2023-02-15T11:31:23;11.50;67.70
74657;DHT22;63185;45.642;13.764;2023-02-15T11:34:00;11.40;68.80
74657;DHT22;63185;45.642;13.764;2023-02-15T11:36:32;11.40;69.20
74657;DHT22;63185;45.642;13.764;2023-02-15T11:39:02;11.40;67.60
74657;DHT22;63185;45.642;13.764;2023-02-15T11:41:34;11.40;67.10
74657;DHT22;63185;45.642;13.764;2023-02-15T11:46:34;11.50;67.70
74657;DHT22;63185;45.642;13.764;2023-02-15T11:49:01;11.50;67.00
74657;DHT22;63185;45.642;13.764;2023-02-15T11:51:29;11.60;66.50
74657;DHT22;63185;45.642;13.764;2023-02-15T11:53:54;11.60;66.30
74657;DHT22;63185;45.642;13.764;2023-02-15T11:56:23;11.60;66.90
74657;DHT22;63185;45.642;13.764;2023-02-15T11:59:21;11.50;67.20
74657;DHT22;63185;45.642;13.764;2023-02-15T12:01:50;11.60;66.90
74657;DHT22;63185;45.642;13.764;2023-02-15T12:04:28;11.50;67.50
74657;DHT22;63185;45.642;13.764;2023-02-15T12:07:03;11.60;67.40
74657;DHT22;63185;45.642;13.764;2023-02-15T12:09:35;11.60;67.20
74657;DHT22;63185;45.642;13.764;2023-02-15T12:12:30;11.60;65.10
74657;DHT22;63185;45.642;13.764;2023-02-15T12:14:58;11.60;64.50
74657;DHT22;63185;45.642;13.764;2023-02-15T12:17:27;11.60;62.30
74657;DHT22;63185;45.642;13.764;2023-02-15T12:20:04;11.80;64.10
74657;DHT22;63185;45.642;13.764;2023-02-15T12:22:34;12.00;61.80
74657;DHT22;63185;45.642;13.764;2023-02-15T12:25:10;12.10;61.80
74657;DHT22;63185;45.642;13.764;2023-02-15T12:27:45;12.10;62.30
74657;DHT22;63185;45.642;13.764;2023-02-15T12:30:38;12.30;59.20
74657;DHT22;63185;45.642;13.764;2023-02-15T12:35:36;12.40;60.90
74657;DHT22;63185;45.642;13.764;2023-02-15T12:38:24;12.30;61.00
74657;DHT22;63185;45.642;13.764;2023-02-15T12:40:58;12.30;59.50
74657;DHT22;63185;45.642;13.764;2023-02-15T12:43:32;12.30;59.50
74657;DHT22;63185;45.642;13.764;2023-02-15T12:46:22;12.50;59.60
74657;DHT22;63185;45.642;13.764;2023-02-15T12:49:07;12.60;58.00
74657;DHT22;63185;45.642;13.764;2023-02-15T12:51:56;12.60;59.10
74657;DHT22;63185;45.642;13.764;2023-02-15T12:56:48;12.30;58.10
74657;DHT22;63185;45.642;13.764;2023-02-15T12:59:14;12.40;56.60
74657;DHT22;63185;45.642;13.764;2023-02-15T13:01:46;12.30;57.90
74657;DHT22;63185;45.642;13.764;2023-02-15T13:04:25;12.20;60.20
74657;DHT22;63185;45.642;13.764;2023-02-15T13:06:54;12.20;59.70
74657;DHT22;63185;45.642;13.764;2023-02-15T13:14:45;12.50;57.70
74657;DHT22;63185;45.642;13.764;2023-02-15T13:17:15;12.40;55.90
74657;DHT22;63185;45.642;13.764;2023-02-15T13:19:48;12.20;56.70
74657;DHT22;63185;45.642;13.764;2023-02-15T13:22:45;12.30;56.50
74657;DHT22;63185;45.642;13.764;2023-02-15T13:25:22;12.50;57.30
74657;DHT22;63185;45.642;13.764;2023-02-15T13:27:52;12.60;58.30
74657;DHT22;63185;45.642;13.764;2023-02-15T13:32:54;12.80;56.00
74657;DHT22;63185;45.642;13.764;2023-02-15T13:35:21;12.90;54.20
74657;DHT22;63185;45.642;13.764;2023-02-15T13:39:01;12.90;55.20
74657;DHT22;63185;45.642;13.764;2023-02-15T13:40:59;12.70;56.00
74657;DHT22;63185;45.642;13.764;2023-02-15T14:00:43;12.80;54.70
74657;DHT22;63185;45.642;13.764;2023-02-15T14:06:25;12.80;53.30
74657;DHT22;63185;45.642;13.764;2023-02-15T14:23:11;12.80;53.10
74657;DHT22;63185;45.642;13.764;2023-02-15T14:25:53;12.90;52.00
74657;DHT22;63185;45.642;13.764;2023-02-15T14:28:43;12.70;52.10
74657;DHT22;63185;45.642;13.764;2023-02-15T14:31:10;13.00;52.10
74657;DHT22;63185;45.642;13.764;2023-02-15T14:33:41;12.90;51.70
74657;DHT22;63185;45.642;13.764;2023-02-15T14:36:15;12.90;53.20
74657;DHT22;63185;45.642;13.764;2023-02-15T14:49:57;13.10;57.40
74657;DHT22;63185;45.642;13.764;2023-02-15T14:52:22;13.30;53.50
74657;DHT22;63185;45.642;13.764;2023-02-15T14:59:56;13.70;51.00
74657;DHT22;63185;45.642;13.764;2023-02-15T15:05:24;14.10;53.30
74657;DHT22;63185;45.642;13.764;2023-02-15T15:07:55;14.40;54.50
74657;DHT22;63185;45.642;13.764;2023-02-15T15:12:57;14.10;56.60
74657;DHT22;63185;45.642;13.764;2023-02-15T15:25:48;16.10;52.30
74657;DHT22;63185;45.642;13.764;2023-02-15T15:31:19;16.50;52.00
74657;DHT22;63185;45.642;13.764;2023-02-15T15:42:42;17.40;50.50
74657;DHT22;63185;45.642;13.764;2023-02-15T15:50:40;16.90;51.60
74657;DHT22;63185;45.642;13.764;2023-02-15T15:53:06;16.60;52.30
74657;DHT22;63185;45.642;13.764;2023-02-15T15:55:41;16.30;53.10
74657;DHT22;63185;45.642;13.764;2023-02-15T15:58:07;16.20;53.50
74657;DHT22;63185;45.642;13.764;2023-02-15T16:03:05;16.10;53.60
74657;DHT22;63185;45.642;13.764;2023-02-15T16:05:40;16.10;53.70
74657;DHT22;63185;45.642;13.764;2023-02-15T16:08:06;16.10;53.80
74657;DHT22;63185;45.642;13.764;2023-02-15T16:10:33;16.30;53.40
74657;DHT22;63185;45.642;13.764;2023-02-15T16:13:00;16.30;53.20
74657;DHT22;63185;45.642;13.764;2023-02-15T16:15:46;16.20;53.30
74657;DHT22;63185;45.642;13.764;2023-02-15T16:18:21;16.10;53.30
74657;DHT22;63185;45.642;13.764;2023-02-15T16:21:12;15.70;54.20
74657;DHT22;63185;45.642;13.764;2023-02-15T16:26:37;14.90;56.00
74657;DHT22;63185;45.642;13.764;2023-02-15T16:29:23;14.30;57.20
74657;DHT22;63185;45.642;13.764;2023-02-15T16:34:58;13.20;58.50
74657;DHT22;63185;45.642;13.764;2023-02-15T16:37:33;12.90;60.00
74657;DHT22;63185;45.642;13.764;2023-02-15T16:39:59;12.60;61.20
74657;DHT22;63185;45.642;13.764;2023-02-15T16:42:25;12.50;61.60
74657;DHT22;63185;45.642;13.764;2023-02-15T16:45:07;12.40;61.90
74657;DHT22;63185;45.642;13.764;2023-02-15T16:47:39;12.20;61.60
74657;DHT22;63185;45.642;13.764;2023-02-15T16:50:17;12.20;60.00
74657;DHT22;63185;45.642;13.764;2023-02-15T16:52:44;12.10;59.40
74657;DHT22;63185;45.642;13.764;2023-02-15T16:55:25;12.10;59.60
74657;DHT22;63185;45.642;13.764;2023-02-15T16:57:56;11.90;60.10
74657;DHT22;63185;45.642;13.764;2023-02-15T17:00:26;11.90;60.90
74657;DHT22;63185;45.642;13.764;2023-02-15T17:03:05;11.70;61.20
74657;DHT22;63185;45.642;13.764;2023-02-15T17:05:40;11.70;61.10
74657;DHT22;63185;45.642;13.764;2023-02-15T17:08:15;11.60;61.30
74657;DHT22;63185;45.642;13.764;2023-02-15T17:10:46;11.60;62.50
74657;DHT22;63185;45.642;13.764;2023-02-15T17:13:26;11.60;64.20
74657;DHT22;63185;45.642;13.764;2023-02-15T17:18:39;11.40;65.90
74657;DHT22;63185;45.642;13.764;2023-02-15T17:21:17;11.40;66.40
74657;DHT22;63185;45.642;13.764;2023-02-15T17:23:48;11.30;66.90
74657;DHT22;63185;45.642;13.764;2023-02-15T17:26:23;11.30;67.60
74657;DHT22;63185;45.642;13.764;2023-02-15T17:28:58;11.30;68.40
74657;DHT22;63185;45.642;13.764;2023-02-15T17:31:26;11.20;68.60
74657;DHT22;63185;45.642;13.764;2023-02-15T17:33:54;11.20;69.40
74657;DHT22;63185;45.642;13.764;2023-02-15T17:36:23;11.10;69.50
74657;DHT22;63185;45.642;13.764;2023-02-15T17:41:31;11.10;70.20
74657;DHT22;63185;45.642;13.764;2023-02-15T17:43:58;11.10;70.70
74657;DHT22;63185;45.642;13.764;2023-02-15T17:46:25;11.10;70.90
74657;DHT22;63185;45.642;13.764;2023-02-15T17:48:53;11.10;71.30
74657;DHT22;63185;45.642;13.764;2023-02-15T17:51:21;11.10;71.50
74657;DHT22;63185;45.642;13.764;2023-02-15T17:53:47;11.00;71.50
74657;DHT22;63185;45.642;13.764;2023-02-15T17:56:32;11.00;71.80
74657;DHT22;63185;45.642;13.764;2023-02-15T17:58:58;11.10;71.80
74657;DHT22;63185;45.642;13.764;2023-02-15T18:01:24;11.00;71.40
74657;DHT22;63185;45.642;13.764;2023-02-15T18:04:11;11.00;71.60
74657;DHT22;63185;45.642;13.764;2023-02-15T18:06:56;11.00;70.80
74657;DHT22;63185;45.642;13.764;2023-02-15T18:09:41;11.00;70.50
74657;DHT22;63185;45.642;13.764;2023-02-15T18:12:31;10.90;70.30
74657;DHT22;63185;45.642;13.764;2023-02-15T18:14:58;10.90;70.60
74657;DHT22;63185;45.642;13.764;2023-02-15T18:17:37;10.90;71.20
74657;DHT22;63185;45.642;13.764;2023-02-15T18:20:14;10.90;71.90
74657;DHT22;63185;45.642;13.764;2023-02-15T18:22:43;10.80;72.60
74657;DHT22;63185;45.642;13.764;2023-02-15T18:25:16;10.80;72.70
74657;DHT22;63185;45.642;13.764;2023-02-15T18:27:42;10.70;73.10
74657;DHT22;63185;45.642;13.764;2023-02-15T18:30:14;10.70;73.10
74657;DHT22;63185;45.642;13.764;2023-02-15T18:32:40;10.70;73.10
74657;DHT22;63185;45.642;13.764;2023-02-15T18:35:08;10.70;72.80
74657;DHT22;63185;45.642;13.764;2023-02-15T18:37:38;10.60;72.70
74657;DHT22;63185;45.642;13.764;2023-02-15T18:40:04;10.60;72.80
74657;DHT22;63185;45.642;13.764;2023-02-15T18:42:32;10.60;73.10
74657;DHT22;63185;45.642;13.764;2023-02-15T18:45:14;10.70;73.10
74657;DHT22;63185;45.642;13.764;2023-02-15T18:47:40;10.70;72.70
74657;DHT22;63185;45.642;13.764;2023-02-15T18:50:06;10.60;72.10
74657;DHT22;63185;45.642;13.764;2023-02-15T18:52:35;10.60;71.90
74657;DHT22;63185;45.642;13.764;2023-02-15T18:55:03;10.70;71.10
74657;DHT22;63185;45.642;13.764;2023-02-15T18:57:32;10.80;71.60
74657;DHT22;63185;45.642;13.764;2023-02-15T18:59:58;10.80;71.80
74657;DHT22;63185;45.642;13.764;2023-02-15T19:02:24;10.70;72.00
74657;DHT22;63185;45.642;13.764;2023-02-15T19:04:49;10.70;72.30
74657;DHT22;63185;45.642;13.764;2023-02-15T19:07:24;10.60;72.40
74657;DHT22;63185;45.642;13.764;2023-02-15T19:09:54;10.70;72.20
74657;DHT22;63185;45.642;13.764;2023-02-15T19:12:20;10.60;72.20
74657;DHT22;63185;45.642;13.764;2023-02-15T19:14:46;10.60;72.00
74657;DHT22;63185;45.642;13.764;2023-02-15T19:17:14;10.70;71.70
74657;DHT22;63185;45.642;13.764;2023-02-15T19:19:41;10.60;71.50
74657;DHT22;63185;45.642;13.764;2023-02-15T19:22:22;10.60;71.60
74657;DHT22;63185;45.642;13.764;2023-02-15T19:24:50;10.50;71.80